createdAt,value
2018-07-23T00:02:07.836Z,14.83
2018-07-23T00:04:36.519Z,13.17
2018-07-23T00:07:05.425Z,13.73
2018-07-23T00:09:34.151Z,13.17
2018-07-23T00:12:02.873Z,15.37
2018-07-23T00:14:31.591Z,13.80
2018-07-23T00:17:00.169Z,14.27
2018-07-23T00:19:28.725Z,15.47
2018-07-23T00:21:57.442Z,14.13
2018-07-23T00:24:25.948Z,13.40
2018-07-23T00:26:54.699Z,14.93
2018-07-23T00:29:23.209Z,13.63
2018-07-23T00:31:51.745Z,13.97
2018-07-23T00:34:20.276Z,13.60
2018-07-23T00:36:48.954Z,12.67
2018-07-23T00:39:17.517Z,13.17
2018-07-23T00:41:46.226Z,13.83
2018-07-23T00:44:14.774Z,13.33
2018-07-23T00:46:43.360Z,13.73
2018-07-23T00:49:11.903Z,12.63
2018-07-23T00:51:40.556Z,13.70
2018-07-23T00:54:09.081Z,13.37
2018-07-23T00:56:37.856Z,13.70
2018-07-23T00:59:06.323Z,13.07
2018-07-23T01:01:35.034Z,14.97
2018-07-23T01:04:03.523Z,14.60
2018-07-23T01:06:32.306Z,13.80
2018-07-23T01:09:00.847Z,15.27
2018-07-23T01:11:29.388Z,15.47
2018-07-23T01:13:57.895Z,18.50
2018-07-23T01:16:26.595Z,15.30
2018-07-23T01:18:55.103Z,14.73
2018-07-23T01:21:23.835Z,14.30
2018-07-23T01:23:52.338Z,14.80
2018-07-23T01:26:21.227Z,15.80
2018-07-23T01:28:49.734Z,16.07
2018-07-23T01:31:18.586Z,16.93
2018-07-23T01:33:47.109Z,16.53
2018-07-23T01:36:15.885Z,14.93
2018-07-23T01:38:44.413Z,15.93
2018-07-23T01:41:13.143Z,16.03
2018-07-23T01:43:41.811Z,15.90
2018-07-23T01:46:10.386Z,15.47
2018-07-23T01:48:38.874Z,16.67
2018-07-23T01:51:07.599Z,16.03
2018-07-23T01:53:36.095Z,15.20
2018-07-23T01:56:04.636Z,16.77
2018-07-23T01:58:33.131Z,18.27
2018-07-23T02:01:11.267Z,16.03
2018-07-23T02:03:40.754Z,15.40
2018-07-23T02:06:09.920Z,16.20
2018-07-23T02:08:38.440Z,15.70
2018-07-23T02:11:07.790Z,14.57
2018-07-23T02:13:36.278Z,15.77
2018-07-23T02:16:04.782Z,14.97
2018-07-23T02:18:33.300Z,15.17
2018-07-23T02:21:01.510Z,15.87
2018-07-23T02:23:30.043Z,15.17
2018-07-23T02:25:58.628Z,14.73
2018-07-23T02:28:27.143Z,14.33
2018-07-23T02:30:55.860Z,16.53
2018-07-23T02:33:24.363Z,16.37
2018-07-23T02:35:52.876Z,16.23
2018-07-23T02:38:21.362Z,15.87
2018-07-23T02:40:50.088Z,15.30
2018-07-23T02:43:18.579Z,16.53
2018-07-23T02:45:47.085Z,16.50
2018-07-23T02:48:15.605Z,19.63
2018-07-23T02:50:44.348Z,16.63
2018-07-23T02:53:12.871Z,16.73
2018-07-23T02:55:41.400Z,18.80
2018-07-23T02:58:09.878Z,16.30
2018-07-23T03:00:38.586Z,15.57
2018-07-23T03:03:07.456Z,17.97
2018-07-23T03:05:36.172Z,16.13
2018-07-23T03:08:04.665Z,17.27
2018-07-23T03:10:33.360Z,15.77
2018-07-23T03:13:01.866Z,16.90
2018-07-23T03:15:30.637Z,16.90
2018-07-23T03:17:59.210Z,15.77
2018-07-23T03:20:27.937Z,19.03
2018-07-23T03:22:56.454Z,18.07
2018-07-23T03:25:24.990Z,16.93
2018-07-23T03:27:53.540Z,17.60
2018-07-23T03:30:22.248Z,19.33
2018-07-23T03:32:50.762Z,18.63
2018-07-23T03:35:19.418Z,19.23
2018-07-23T03:37:47.975Z,18.37
2018-07-23T03:40:16.492Z,18.93
2018-07-23T03:42:45.012Z,20.63
2018-07-23T03:45:13.779Z,17.17
2018-07-23T03:47:42.382Z,17.37
2018-07-23T03:50:11.163Z,19.20
2018-07-23T03:52:39.684Z,19.43
2018-07-23T03:55:08.403Z,18.17
2018-07-23T03:57:36.970Z,17.10
2018-07-23T04:00:05.713Z,21.93
2018-07-23T04:02:34.195Z,21.60
2018-07-23T04:05:02.897Z,22.63
2018-07-23T04:07:31.417Z,21.20
2018-07-23T04:10:00.232Z,24.90
2018-07-23T04:12:28.726Z,21.87
2018-07-23T04:14:57.282Z,24.17
2018-07-23T04:17:25.862Z,23.00
2018-07-23T04:19:54.375Z,23.27
2018-07-23T04:22:22.903Z,25.03
2018-07-23T04:24:51.421Z,26.43
2018-07-23T04:27:19.898Z,23.43
2018-07-23T04:29:48.577Z,24.77
2018-07-23T04:32:17.047Z,23.63
2018-07-23T04:34:45.567Z,24.90
2018-07-23T04:37:14.068Z,23.57
2018-07-23T04:39:42.794Z,33.23
2018-07-23T04:42:10.992Z,23.57
2018-07-23T04:44:39.520Z,25.77
2018-07-23T04:47:08.105Z,24.33
2018-07-23T04:49:36.851Z,23.10
2018-07-23T04:52:05.354Z,23.50
2018-07-23T04:54:34.130Z,24.37
2018-07-23T04:57:02.706Z,24.80
2018-07-23T04:59:31.279Z,23.50
2018-07-23T05:02:00.107Z,23.37
2018-07-23T05:04:28.887Z,23.30
2018-07-23T05:06:57.495Z,22.40
2018-07-23T05:09:26.265Z,21.17
2018-07-23T05:11:54.804Z,24.10
2018-07-23T05:14:23.351Z,22.67
2018-07-23T05:16:51.842Z,23.23
2018-07-23T05:19:20.502Z,25.00
2018-07-23T05:21:49.047Z,21.67
2018-07-23T05:24:17.783Z,22.60
2018-07-23T05:26:46.303Z,24.27
2018-07-23T05:29:15.076Z,22.63
2018-07-23T05:31:43.585Z,21.63
2018-07-23T05:34:12.340Z,20.97
2018-07-23T05:36:40.867Z,20.13
2018-07-23T05:39:11.268Z,21.33
2018-07-23T05:41:39.801Z,25.27
2018-07-23T05:44:08.572Z,24.10
2018-07-23T05:46:37.097Z,21.50
2018-07-23T05:49:05.666Z,20.37
2018-07-23T05:51:34.197Z,19.13
2018-07-23T05:54:02.772Z,21.00
2018-07-23T05:56:31.347Z,19.57
2018-07-23T05:59:00.011Z,20.30
2018-07-23T06:01:28.156Z,19.57
2018-07-23T06:03:56.934Z,19.63
2018-07-23T06:06:25.510Z,20.67
2018-07-23T06:08:54.122Z,19.50
2018-07-23T06:11:22.608Z,19.97
2018-07-23T06:13:51.127Z,18.63
2018-07-23T06:16:19.728Z,21.40
2018-07-23T06:18:48.561Z,20.07
2018-07-23T06:21:17.062Z,18.77
2018-07-23T06:23:45.846Z,22.80
2018-07-23T06:26:14.432Z,18.63
2018-07-23T06:28:43.165Z,18.40
2018-07-23T06:31:11.383Z,22.17
2018-07-23T06:33:40.111Z,20.87
2018-07-23T06:36:08.771Z,21.93
2018-07-23T06:38:37.460Z,23.20
2018-07-23T06:41:06.029Z,21.03
2018-07-23T06:43:34.636Z,24.03
2018-07-23T06:46:03.166Z,22.77
2018-07-23T06:48:31.781Z,19.07
2018-07-23T06:51:00.322Z,24.50
2018-07-23T06:53:29.218Z,25.47
2018-07-23T06:55:57.780Z,22.80
2018-07-23T06:58:26.570Z,24.17
2018-07-23T07:00:55.299Z,20.87
2018-07-23T07:03:24.128Z,24.50
2018-07-23T07:05:52.591Z,25.87
2018-07-23T07:08:21.322Z,22.23
2018-07-23T07:10:50.345Z,25.23
2018-07-23T07:13:18.964Z,23.87
2018-07-23T07:15:47.684Z,21.73
2018-07-23T07:18:16.298Z,26.43
2018-07-23T07:20:44.800Z,23.77
2018-07-23T07:23:13.431Z,23.90
2018-07-23T07:25:41.945Z,25.10
2018-07-23T07:28:10.751Z,29.70
2018-07-23T07:30:39.594Z,31.73
2018-07-23T07:33:08.637Z,24.47
2018-07-23T07:35:37.327Z,30.23
2018-07-23T07:38:06.063Z,24.50
2018-07-23T07:40:34.560Z,25.30
2018-07-23T07:43:03.272Z,26.30
2018-07-23T07:45:31.476Z,23.73
2018-07-23T07:48:00.014Z,25.50
2018-07-23T07:50:28.714Z,19.90
2018-07-23T07:52:57.223Z,19.47
2018-07-23T07:55:26.094Z,18.07
2018-07-23T07:57:55.029Z,20.00
2018-07-23T08:00:23.822Z,22.50
2018-07-23T08:02:52.485Z,22.47
2018-07-23T08:05:21.022Z,13.27
2018-07-23T08:07:49.721Z,15.10
2018-07-23T08:10:18.263Z,13.07
2018-07-23T08:12:46.949Z,19.27
2018-07-23T08:15:15.616Z,16.03
2018-07-23T08:17:44.199Z,18.37
2018-07-23T08:20:13.045Z,17.13
2018-07-23T08:22:41.561Z,19.43
2018-07-23T08:25:10.413Z,17.70
2018-07-23T08:27:38.943Z,17.60
2018-07-23T08:30:07.980Z,18.43
2018-07-23T08:32:36.531Z,16.30
2018-07-23T08:35:05.374Z,20.40
2018-07-23T08:37:33.879Z,17.63
2018-07-23T08:40:02.643Z,21.27
2018-07-23T08:42:31.190Z,16.93
2018-07-23T08:44:59.949Z,15.73
2018-07-23T08:47:28.580Z,16.93
2018-07-23T08:49:57.440Z,22.10
2018-07-23T08:52:25.951Z,18.10
2018-07-23T08:54:54.684Z,21.73
2018-07-23T08:57:23.260Z,25.13
2018-07-23T08:59:52.064Z,16.73
2018-07-23T09:02:20.897Z,19.80
2018-07-23T09:04:49.669Z,17.50
2018-07-23T09:07:18.350Z,12.60
2018-07-23T09:09:47.541Z,10.63
2018-07-23T09:12:16.148Z,8.53
2018-07-23T09:14:45.121Z,8.40
2018-07-23T09:17:13.957Z,8.23
2018-07-23T09:19:42.596Z,8.53
2018-07-23T09:22:11.294Z,8.13
2018-07-23T09:24:39.991Z,8.07
2018-07-23T09:27:08.748Z,9.03
2018-07-23T09:29:37.117Z,8.83
2018-07-23T09:32:06.027Z,9.23
2018-07-23T09:34:35.295Z,7.93
2018-07-23T09:37:04.010Z,7.67
2018-07-23T09:39:32.949Z,8.27
2018-07-23T09:42:01.593Z,9.90
2018-07-23T09:44:30.453Z,7.70
2018-07-23T09:46:59.199Z,7.90
2018-07-23T09:49:27.807Z,8.90
2018-07-23T09:51:56.440Z,7.80
2018-07-23T09:54:25.508Z,8.83
2018-07-23T09:56:54.085Z,10.07
2018-07-23T09:59:22.673Z,9.27
2018-07-23T10:01:51.359Z,10.17
2018-07-23T10:04:19.882Z,8.63
2018-07-23T10:06:48.380Z,9.07
2018-07-23T10:09:16.974Z,12.07
2018-07-23T10:11:45.505Z,11.30
2018-07-23T10:31:01.330Z,10.27
2018-07-23T10:50:21.160Z,10.50
2018-07-23T11:09:38.389Z,9.83
2018-07-23T11:48:50.847Z,14.10
2018-07-23T11:51:19.461Z,10.27
2018-07-23T11:53:48.001Z,10.57
2018-07-23T12:13:03.934Z,8.85
2018-07-23T12:32:19.896Z,8.50
2018-07-23T12:52:02.301Z,6.83
2018-07-23T12:54:30.931Z,7.95
2018-07-23T12:56:59.557Z,9.18
2018-07-23T12:59:28.345Z,7.83
2018-07-23T13:01:57.059Z,7.55
2018-07-23T13:04:26.046Z,7.10
2018-07-23T13:06:54.674Z,7.42
2018-07-23T13:09:24.282Z,7.55
2018-07-23T13:11:52.968Z,8.05
2018-07-23T13:14:21.640Z,7.85
2018-07-23T13:16:50.282Z,8.88
2018-07-23T13:19:19.033Z,7.10
2018-07-23T13:21:47.648Z,8.13
2018-07-23T13:41:03.850Z,7.62
2018-07-23T13:43:32.594Z,9.60
2018-07-23T13:46:01.651Z,8.03
2018-07-23T13:48:30.233Z,7.65
2018-07-23T13:50:59.071Z,8.03
2018-07-23T13:53:27.607Z,7.53
2018-07-23T13:55:56.475Z,9.73
2018-07-23T13:58:24.994Z,9.28
2018-07-23T14:00:53.904Z,8.78
2018-07-23T14:03:22.615Z,7.45
2018-07-23T14:05:51.398Z,8.40
2018-07-23T14:25:07.875Z,6.58
2018-07-23T14:27:36.488Z,7.65
2018-07-23T14:30:05.364Z,7.78
2018-07-23T14:32:33.907Z,6.65
2018-07-23T14:35:02.610Z,8.50
2018-07-23T14:37:31.226Z,7.12
2018-07-23T14:39:59.949Z,7.75
2018-07-23T14:42:28.631Z,8.85
2018-07-23T14:44:57.230Z,6.22
2018-07-23T14:47:25.884Z,6.83
2018-07-23T14:49:54.671Z,7.95
2018-07-23T14:52:23.263Z,5.83
2018-07-23T14:54:52.070Z,6.20
2018-07-23T14:57:20.614Z,6.65
2018-07-23T14:59:49.040Z,5.47
2018-07-23T15:02:17.675Z,7.10
2018-07-23T15:21:34.805Z,4.72
2018-07-23T15:40:50.237Z,5.33
2018-07-23T16:03:33.918Z,7.37
2018-07-23T16:06:02.431Z,3.60
2018-07-23T16:08:31.292Z,4.20
2018-07-23T16:10:59.981Z,6.62
2018-07-23T16:13:28.612Z,4.40
2018-07-23T16:15:57.238Z,5.30
2018-07-23T16:18:26.064Z,4.62
2018-07-23T16:20:54.708Z,3.83
2018-07-23T16:23:23.572Z,5.25
2018-07-23T16:25:52.137Z,5.22
2018-07-23T16:28:20.743Z,3.70
2018-07-23T16:47:36.627Z,4.60
2018-07-23T16:50:05.568Z,5.20
2018-07-23T16:52:34.365Z,7.37
2018-07-23T16:55:03.079Z,8.00
2018-07-23T16:57:31.839Z,5.10
2018-07-23T17:00:00.652Z,6.57
2018-07-23T17:02:29.635Z,8.40
2018-07-23T17:04:58.460Z,6.03
2018-07-23T17:07:27.232Z,4.57
2018-07-23T17:09:55.916Z,6.67
2018-07-23T17:12:24.695Z,4.80
2018-07-23T17:14:53.282Z,5.43
2018-07-23T17:17:21.860Z,6.03
2018-07-23T17:19:50.551Z,6.10
2018-07-23T17:22:19.129Z,4.23
2018-07-23T17:24:47.717Z,5.67
2018-07-23T17:27:16.532Z,5.43
2018-07-23T17:29:45.117Z,7.17
2018-07-23T17:32:14.124Z,7.73
2018-07-23T17:34:42.649Z,4.60
2018-07-23T17:37:11.363Z,5.87
2018-07-23T17:39:39.959Z,6.43
2018-07-23T17:42:08.673Z,5.00
2018-07-23T17:44:37.639Z,6.93
2018-07-23T17:47:06.267Z,4.77
2018-07-23T17:49:35.495Z,4.97
2018-07-23T17:52:05.097Z,6.93
2018-07-23T17:54:34.378Z,5.00
2018-07-23T17:57:03.409Z,5.43
2018-07-23T17:59:32.161Z,4.90
2018-07-23T18:02:01.176Z,4.00
2018-07-23T18:04:29.899Z,8.73
2018-07-23T18:06:58.895Z,5.43
2018-07-23T18:09:27.630Z,5.17
2018-07-23T18:11:56.416Z,4.83
2018-07-23T18:14:25.221Z,5.57
2018-07-23T18:16:54.231Z,8.83
2018-07-23T18:19:23.039Z,9.90
2018-07-23T18:21:51.769Z,7.07
2018-07-23T18:24:20.089Z,5.43
2018-07-23T18:26:48.734Z,5.10
2018-07-23T18:29:17.407Z,8.30
2018-07-23T18:31:46.212Z,9.13
2018-07-23T18:34:14.731Z,8.80
2018-07-23T18:36:43.448Z,8.37
2018-07-23T18:39:13.069Z,9.93
2018-07-23T18:41:42.317Z,7.77
2018-07-23T18:44:10.871Z,6.87
2018-07-23T18:46:39.706Z,8.63
2018-07-23T18:49:23.954Z,6.87
2018-07-23T18:51:53.578Z,8.07
2018-07-23T18:54:23.293Z,7.23
2018-07-23T18:56:53.993Z,6.37
2018-07-23T18:59:22.712Z,7.43
2018-07-23T19:01:52.312Z,6.17
2018-07-23T19:04:20.879Z,7.27
2018-07-23T19:06:49.984Z,7.30
2018-07-23T19:09:19.855Z,9.87
2018-07-23T19:11:50.820Z,6.63
2018-07-23T19:14:19.917Z,7.97
2018-07-23T19:16:49.086Z,9.30
2018-07-23T19:19:18.657Z,6.50
2018-07-23T19:21:47.505Z,7.00
2018-07-23T19:24:16.150Z,8.83
2018-07-23T19:26:44.701Z,5.60
2018-07-23T19:29:13.278Z,10.47
2018-07-23T19:31:42.106Z,6.83
2018-07-23T19:34:10.317Z,8.83
2018-07-23T19:36:39.080Z,8.57
2018-07-23T19:39:10.014Z,11.17
2018-07-23T19:41:39.100Z,7.57
2018-07-23T19:44:08.155Z,9.83
2018-07-23T19:46:36.867Z,12.60
2018-07-23T19:49:05.564Z,15.03
2018-07-23T19:51:34.616Z,16.13
2018-07-23T19:54:03.433Z,20.80
2018-07-23T19:56:32.298Z,25.70
2018-07-23T19:59:00.870Z,14.10
2018-07-23T20:01:29.802Z,12.00
2018-07-23T20:03:58.351Z,12.33
2018-07-23T20:06:27.699Z,13.87
2018-07-23T20:08:57.248Z,12.03
2018-07-23T20:11:26.598Z,7.63
2018-07-23T20:13:55.318Z,7.90
2018-07-23T20:16:23.899Z,9.73
2018-07-23T20:18:52.636Z,7.70
2018-07-23T20:21:21.327Z,7.40
2018-07-23T20:23:49.874Z,9.67
2018-07-23T20:26:18.427Z,10.17
2018-07-23T20:28:47.199Z,6.93
2018-07-23T20:31:15.821Z,10.47
2018-07-23T20:33:44.381Z,9.63
2018-07-23T20:36:13.235Z,10.57
2018-07-23T20:38:41.799Z,7.57
2018-07-23T20:41:10.480Z,9.07
2018-07-23T20:43:39.033Z,10.43
2018-07-23T20:46:07.788Z,12.13
2018-07-23T20:48:36.474Z,10.93
2018-07-23T20:51:05.319Z,10.13
2018-07-23T20:53:33.982Z,13.70
2018-07-23T20:56:02.899Z,11.90
2018-07-23T20:58:32.041Z,7.40
2018-07-23T21:01:00.830Z,7.80
2018-07-23T21:03:29.392Z,9.37
2018-07-23T21:05:58.430Z,9.97
2018-07-23T21:08:27.145Z,9.40
2018-07-23T21:10:55.861Z,9.60
2018-07-23T21:13:24.465Z,13.10
2018-07-23T21:15:53.246Z,8.90
2018-07-23T21:18:21.873Z,9.23
2018-07-23T21:20:50.732Z,9.30
2018-07-23T21:23:19.419Z,9.63
2018-07-23T21:25:48.043Z,11.00
2018-07-23T21:28:16.760Z,8.80
2018-07-23T21:30:45.658Z,10.17
2018-07-23T21:33:14.304Z,9.63
2018-07-23T21:35:43.182Z,9.20
2018-07-23T21:38:11.787Z,10.40
2018-07-23T21:40:40.632Z,13.10
2018-07-23T21:43:09.198Z,10.77
2018-07-23T21:45:37.796Z,10.03
2018-07-23T21:48:06.353Z,10.10
2018-07-23T21:50:35.209Z,12.80
2018-07-23T21:53:03.747Z,10.63
2018-07-23T21:55:32.595Z,12.80
2018-07-23T21:58:01.244Z,15.10
2018-07-23T22:00:30.168Z,13.37
2018-07-23T22:02:58.712Z,10.00
2018-07-23T22:05:27.345Z,10.93
2018-07-23T22:07:56.063Z,13.67
2018-07-23T22:10:24.853Z,16.57
2018-07-23T22:12:53.475Z,13.90
2018-07-23T22:15:22.323Z,15.80
2018-07-23T22:17:51.043Z,27.40
2018-07-23T22:20:19.998Z,24.53
2018-07-23T22:22:48.594Z,25.87
2018-07-23T22:25:17.552Z,26.30
2018-07-23T22:27:46.211Z,23.57
2018-07-23T22:30:14.845Z,23.80
2018-07-23T22:32:43.350Z,25.43
2018-07-23T22:35:11.973Z,22.17
2018-07-23T22:37:40.572Z,21.80
2018-07-23T22:40:09.182Z,20.43
2018-07-23T22:42:39.832Z,18.23
2018-07-23T22:45:08.717Z,16.53
2018-07-23T22:47:37.671Z,17.97
2018-07-23T22:50:06.230Z,17.63
2018-07-23T22:52:34.843Z,12.40
2018-07-23T22:55:03.705Z,16.20
2018-07-23T22:57:32.268Z,16.40
2018-07-23T23:00:01.082Z,12.30
2018-07-23T23:02:29.651Z,13.37
2018-07-23T23:04:58.489Z,12.47
2018-07-23T23:07:27.067Z,15.23
2018-07-23T23:09:55.826Z,15.43
2018-07-23T23:12:24.475Z,10.87
2018-07-23T23:14:53.126Z,12.50
2018-07-23T23:17:21.894Z,15.77
2018-07-23T23:19:50.685Z,11.20
2018-07-23T23:22:19.225Z,14.57
2018-07-23T23:24:48.092Z,13.47
2018-07-23T23:27:16.578Z,12.07
2018-07-23T23:29:45.321Z,12.70
2018-07-23T23:32:13.863Z,11.67
2018-07-23T23:34:42.392Z,9.67
2018-07-23T23:37:11.057Z,13.60
2018-07-23T23:39:39.897Z,12.90
2018-07-23T23:42:08.511Z,12.90
2018-07-23T23:44:37.115Z,10.43
2018-07-23T23:47:05.639Z,13.17
2018-07-23T23:49:34.384Z,9.60
2018-07-23T23:52:03.009Z,12.50
2018-07-23T23:54:31.972Z,15.03
2018-07-23T23:57:00.697Z,10.07
2018-07-23T23:59:29.510Z,12.60
